createdAt,value
2019-02-05T00:00:30.704Z,22.1
2019-02-05T00:01:18.123Z,22.1
2019-02-05T00:02:08.457Z,22.1
2019-02-05T00:02:58.229Z,22.1
2019-02-05T00:03:48.883Z,22.1
2019-02-05T00:04:37.574Z,22.2
2019-02-05T00:05:28.677Z,22.2
2019-02-05T00:06:18.882Z,22.3
2019-02-05T00:07:08.513Z,22.3
2019-02-05T00:07:58.841Z,22.2
2019-02-05T00:08:49.466Z,22.2
2019-02-05T00:09:41.521Z,22.2
2019-02-05T00:10:28.551Z,22.1
2019-02-05T00:11:18.796Z,22.1
2019-02-05T00:12:08.953Z,22.1
2019-02-05T00:12:59.016Z,22.1
2019-02-05T00:13:48.796Z,22.1
2019-02-05T00:14:39.653Z,22
2019-02-05T00:15:30.056Z,22
2019-02-05T00:16:19.531Z,22
2019-02-05T00:17:09.551Z,21.9
2019-02-05T00:17:59.183Z,21.9
2019-02-05T00:18:53.176Z,21.9
2019-02-05T00:19:39.396Z,21.9
2019-02-05T00:20:29.558Z,21.9
2019-02-05T00:21:19.625Z,21.9
2019-02-05T00:22:09.298Z,22
2019-02-05T00:22:59.440Z,22
2019-02-05T00:23:49.525Z,22
2019-02-05T00:24:40.767Z,22
2019-02-05T00:25:29.813Z,22.1
2019-02-05T00:26:20.705Z,22.1
2019-02-05T00:27:10.500Z,22.1
2019-02-05T00:28:03.151Z,22.1
2019-02-05T00:28:50.605Z,22.1
2019-02-05T00:29:40.494Z,22.2
2019-02-05T00:30:30.475Z,22.2
2019-02-05T00:31:20.597Z,22.2
2019-02-05T00:32:10.017Z,22.2
2019-02-05T00:33:00.402Z,22.3
2019-02-05T00:33:50.867Z,22.3
2019-02-05T00:34:40.482Z,22.2
2019-02-05T00:35:31.075Z,22.2
2019-02-05T00:36:20.281Z,22.1
2019-02-05T00:37:13.658Z,22.1
2019-02-05T00:38:01.247Z,22.1
2019-02-05T00:38:51.047Z,22.1
2019-02-05T00:39:40.811Z,22.1
2019-02-05T00:40:31.702Z,22.1
2019-02-05T00:41:21.486Z,22
2019-02-05T00:42:11.529Z,22
2019-02-05T00:43:01.471Z,21.9
2019-02-05T00:43:51.927Z,21.9
2019-02-05T00:44:41.526Z,21.9
2019-02-05T00:45:32.049Z,21.9
2019-02-05T00:46:23.373Z,21.9
2019-02-05T00:47:11.392Z,21.9
2019-02-05T00:48:02.066Z,21.9
2019-02-05T00:48:51.989Z,21.9
2019-02-05T00:49:42.334Z,22
2019-02-05T00:50:32.232Z,22.1
2019-02-05T00:51:22.433Z,22.1
2019-02-05T00:52:12.953Z,22.1
2019-02-05T00:53:02.036Z,22.1
2019-02-05T00:53:52.931Z,22.1
2019-02-05T00:54:42.276Z,22.2
2019-02-05T00:55:34.628Z,22.2
2019-02-05T00:56:25.016Z,22.2
2019-02-05T00:57:12.871Z,22.3
2019-02-05T00:58:02.401Z,22.3
2019-02-05T00:58:52.971Z,22.2
2019-02-05T00:59:42.535Z,22.3
2019-02-05T01:00:33.193Z,22.2
2019-02-05T01:01:23.975Z,22.2
2019-02-05T01:02:12.951Z,22.2
2019-02-05T01:03:03.503Z,22.1
2019-02-05T01:03:53.000Z,22.1
2019-02-05T01:04:46.390Z,22.1
2019-02-05T01:05:32.919Z,22.1
2019-02-05T01:06:23.507Z,22.1
2019-02-05T01:07:13.272Z,22.1
2019-02-05T01:08:03.920Z,22.1
2019-02-05T01:08:53.697Z,22
2019-02-05T01:09:43.187Z,22
2019-02-05T01:10:35.073Z,22
2019-02-05T01:11:23.977Z,22
2019-02-05T01:12:13.642Z,21.9
2019-02-05T01:13:03.087Z,21.9
2019-02-05T01:13:56.022Z,22
2019-02-05T01:14:43.355Z,22
2019-02-05T01:15:33.176Z,22
2019-02-05T01:16:24.349Z,22.1
2019-02-05T01:17:13.478Z,22.1
2019-02-05T01:18:04.354Z,22.1
2019-02-05T01:18:54.377Z,22.1
2019-02-05T01:19:44.944Z,22.1
2019-02-05T01:20:34.496Z,22.2
2019-02-05T01:21:24.296Z,22.2
2019-02-05T01:22:14.911Z,22.2
2019-02-05T01:23:06.616Z,22.3
2019-02-05T01:23:54.461Z,22.3
2019-02-05T01:24:44.806Z,22.3
2019-02-05T01:25:34.998Z,22.3
2019-02-05T01:26:37.836Z,22.2
2019-02-05T01:27:13.924Z,22.2
2019-02-05T01:28:05.061Z,22.2
2019-02-05T01:28:56.203Z,22.2
2019-02-05T01:29:45.195Z,22.1
2019-02-05T01:30:35.267Z,22.1
2019-02-05T01:31:25.550Z,22.1
2019-02-05T01:32:18.053Z,22.1
2019-02-05T01:33:05.229Z,22
2019-02-05T01:33:54.903Z,22
2019-02-05T01:34:45.518Z,22
2019-02-05T01:35:35.011Z,22
2019-02-05T01:36:25.126Z,22
2019-02-05T01:37:15.779Z,22
2019-02-05T01:38:05.973Z,21.9
2019-02-05T01:38:55.013Z,21.9
2019-02-05T01:39:45.096Z,21.9
2019-02-05T01:40:35.650Z,22
2019-02-05T01:41:28.550Z,22
2019-02-05T01:42:14.933Z,22.1
2019-02-05T01:43:05.367Z,22.1
2019-02-05T01:43:54.828Z,22.1
2019-02-05T01:44:45.523Z,22.1
2019-02-05T01:45:35.708Z,22.1
2019-02-05T01:46:26.350Z,22.1
2019-02-05T01:47:16.208Z,22.2
2019-02-05T01:48:05.148Z,22.3
2019-02-05T01:48:56.543Z,22.3
2019-02-05T01:49:46.322Z,22.3
2019-02-05T01:50:38.249Z,22.3
2019-02-05T01:51:26.390Z,22.2
2019-02-05T01:52:15.732Z,22.2
2019-02-05T01:53:05.752Z,22.2
2019-02-05T01:53:56.582Z,22.2
2019-02-05T01:54:46.384Z,22.1
2019-02-05T01:55:36.782Z,22.1
2019-02-05T01:56:27.069Z,22.1
2019-02-05T01:57:17.074Z,22.1
2019-02-05T01:58:06.628Z,22.1
2019-02-05T01:58:56.688Z,22.1
2019-02-05T01:59:49.605Z,22
2019-02-05T02:00:37.693Z,22
2019-02-05T02:01:27.122Z,22
2019-02-05T02:02:16.086Z,22
2019-02-05T02:03:07.822Z,21.9
2019-02-05T02:03:57.034Z,21.9
2019-02-05T02:04:47.424Z,21.9
2019-02-05T02:05:38.834Z,22
2019-02-05T02:06:26.726Z,22
2019-02-05T02:07:16.808Z,22.1
2019-02-05T02:08:07.467Z,22.1
2019-02-05T02:08:58.821Z,22.1
2019-02-05T02:09:47.228Z,22.1
2019-02-05T02:10:37.678Z,22.1
2019-02-05T02:11:27.431Z,22.1
2019-02-05T02:12:18.413Z,22.1
2019-02-05T02:13:07.530Z,22.2
2019-02-05T02:13:58.243Z,22.2
2019-02-05T02:14:50.016Z,22.3
2019-02-05T02:15:38.101Z,22.3
2019-02-05T02:16:28.473Z,22.2
2019-02-05T02:17:18.323Z,22.2
2019-02-05T02:18:09.235Z,22.2
2019-02-05T02:18:57.053Z,22.2
2019-02-05T02:19:48.680Z,22.1
2019-02-05T02:20:38.215Z,22.1
2019-02-05T02:21:27.949Z,22.1
2019-02-05T02:22:18.643Z,22.1
2019-02-05T02:23:08.993Z,22.1
2019-02-05T02:24:01.166Z,22.1
2019-02-05T02:24:49.147Z,22.1
2019-02-05T02:25:39.074Z,22.1
2019-02-05T02:26:28.630Z,22.1
2019-02-05T02:27:20.050Z,22
2019-02-05T02:28:08.720Z,22
2019-02-05T02:28:58.772Z,22
2019-02-05T02:29:49.886Z,21.9
2019-02-05T02:30:39.021Z,22
2019-02-05T02:31:28.802Z,22
2019-02-05T02:32:19.637Z,22
2019-02-05T02:33:12.065Z,22
2019-02-05T02:33:59.422Z,22.1
2019-02-05T02:34:49.285Z,22.1
2019-02-05T02:35:39.240Z,22.1
2019-02-05T02:36:29.656Z,22.1
2019-02-05T02:37:19.732Z,22.2
2019-02-05T02:38:09.322Z,22.2
2019-02-05T02:39:00.003Z,22.2
2019-02-05T02:39:49.292Z,22.3
2019-02-05T02:40:39.662Z,22.3
2019-02-05T02:41:28.756Z,22.3
2019-02-05T02:42:22.594Z,22.3
2019-02-05T02:43:09.347Z,22.3
2019-02-05T02:44:00.404Z,22.3
2019-02-05T02:44:48.607Z,22.3
2019-02-05T02:45:39.979Z,22.2
2019-02-05T02:46:29.541Z,22.2
2019-02-05T02:47:20.161Z,22.2
2019-02-05T02:48:10.538Z,22.2
2019-02-05T02:49:00.824Z,22.1
2019-02-05T02:49:50.432Z,22.1
2019-02-05T02:50:41.047Z,22.1
2019-02-05T02:51:32.440Z,22.1
2019-02-05T02:52:21.116Z,22.1
2019-02-05T02:53:10.354Z,22.1
2019-02-05T02:54:00.732Z,22.1
2019-02-05T02:54:51.517Z,22.1
2019-02-05T02:55:41.461Z,22
2019-02-05T02:56:30.675Z,22
2019-02-05T02:57:21.902Z,22
2019-02-05T02:58:14.581Z,22
2019-02-05T02:59:01.046Z,22.1
2019-02-05T02:59:50.310Z,22.1
2019-02-05T03:00:42.850Z,22.1
2019-02-05T03:01:31.055Z,22.1
2019-02-05T03:02:21.376Z,22.2
2019-02-05T03:03:11.550Z,22.2
2019-02-05T03:04:01.790Z,22.3
2019-02-05T03:04:51.130Z,22.3
2019-02-05T03:08:23.182Z,22.3
2019-02-05T03:09:13.454Z,22.3
2019-02-05T03:10:05.245Z,22.3
2019-02-05T03:10:53.619Z,22.3
2019-02-05T03:11:43.618Z,22.2
2019-02-05T03:12:33.443Z,22.2
2019-02-05T03:13:26.218Z,22.2
2019-02-05T03:14:13.962Z,22.1
2019-02-05T03:15:04.360Z,22.1
2019-02-05T03:15:54.832Z,22.1
2019-02-05T03:16:44.890Z,22.1
2019-02-05T03:17:33.819Z,22
2019-02-05T03:18:23.917Z,22.1
2019-02-05T03:19:17.091Z,22.1
2019-02-05T03:20:04.632Z,22
2019-02-05T03:20:54.324Z,22
2019-02-05T03:21:44.631Z,22
2019-02-05T03:22:34.254Z,22
2019-02-05T03:23:24.577Z,22
2019-02-05T03:24:14.934Z,22.1
2019-02-05T03:25:07.140Z,22.1
2019-02-05T03:25:54.456Z,22.1
2019-02-05T03:26:44.871Z,22.1
2019-02-05T03:27:34.704Z,22.1
2019-02-05T03:28:24.824Z,22.2
2019-02-05T03:29:14.635Z,22.2
2019-02-05T03:30:04.824Z,22.2
2019-02-05T03:30:59.895Z,22.3
2019-02-05T03:31:45.517Z,22.3
2019-02-05T03:32:35.582Z,22.3
2019-02-05T03:33:25.982Z,22.3
2019-02-05T03:34:15.212Z,22.3
2019-02-05T03:35:06.318Z,22.3
2019-02-05T03:35:55.671Z,22.3
2019-02-05T03:36:46.116Z,22.3
2019-02-05T03:37:35.057Z,22.2
2019-02-05T03:38:25.226Z,22.2
2019-02-05T03:39:15.302Z,22.2
2019-02-05T03:40:07.440Z,22.1
2019-02-05T03:40:55.861Z,22.1
2019-02-05T03:41:45.846Z,22.1
2019-02-05T03:42:36.546Z,22.1
2019-02-05T03:43:25.100Z,22.1
2019-02-05T03:44:15.797Z,22.1
2019-02-05T03:45:05.937Z,22.1
2019-02-05T03:45:58.722Z,22.1
2019-02-05T03:46:45.823Z,22
2019-02-05T03:47:35.607Z,22.1
2019-02-05T03:48:26.467Z,22.1
2019-02-05T03:49:16.137Z,22.1
2019-02-05T03:50:06.782Z,22.1
2019-02-05T03:50:56.553Z,22.1
2019-02-05T03:51:48.537Z,22.1
2019-02-05T03:52:36.638Z,22.1
2019-02-05T03:53:25.788Z,22.1
2019-02-05T03:54:17.017Z,22.1
2019-02-05T03:55:06.684Z,22.2
2019-02-05T03:55:56.807Z,22.2
2019-02-05T03:56:46.826Z,22.2
2019-02-05T03:59:37.647Z,22.2
2019-02-05T03:59:51.269Z,22.1
2019-02-05T04:00:38.791Z,22.1
2019-02-05T04:01:28.905Z,22
2019-02-05T04:02:18.976Z,22
2019-02-05T04:03:09.267Z,22.1
2019-02-05T04:03:59.311Z,22
2019-02-05T04:04:48.794Z,22.1
2019-02-05T04:05:39.953Z,22.1
2019-02-05T04:06:28.937Z,22.1
2019-02-05T04:07:18.963Z,22.1
2019-02-05T04:08:09.603Z,22.1
2019-02-05T04:09:01.817Z,22.1
2019-02-05T04:09:49.283Z,22.1
2019-02-05T04:10:39.486Z,22.2
2019-02-05T04:11:29.571Z,22.2
2019-02-05T04:12:18.824Z,22.2
2019-02-05T04:13:09.661Z,22.3
2019-02-05T04:13:59.721Z,22.3
2019-02-05T04:14:50.318Z,22.3
2019-02-05T04:15:40.122Z,22.3
2019-02-05T04:16:29.921Z,22.3
2019-02-05T04:17:19.679Z,22.3
2019-02-05T04:18:11.883Z,22.3
2019-02-05T04:18:59.779Z,22.3
2019-02-05T04:19:50.184Z,22.3
2019-02-05T04:20:40.199Z,22.2
2019-02-05T04:21:29.978Z,22.2
2019-02-05T04:22:20.571Z,22.1
2019-02-05T04:23:10.211Z,22.1
2019-02-05T04:24:01.974Z,22.1
2019-02-05T04:24:50.477Z,22.1
2019-02-05T04:25:40.720Z,22.1
2019-02-05T04:26:30.269Z,22.1
2019-02-05T04:27:22.333Z,22.1
2019-02-05T04:28:10.233Z,22.1
2019-02-05T04:29:01.108Z,22.1
2019-02-05T04:29:50.836Z,22.1
2019-02-05T04:30:40.766Z,22.1
2019-02-05T04:31:31.254Z,22.1
2019-02-05T04:32:21.056Z,22.1
2019-02-05T04:33:13.501Z,22.1
2019-02-05T04:34:01.185Z,22.2
2019-02-05T04:34:50.937Z,22.2
2019-02-05T04:35:41.530Z,22.2
2019-02-05T04:36:31.468Z,22.3
2019-02-05T04:37:21.363Z,22.3
2019-02-05T04:38:10.973Z,22.3
2019-02-05T04:39:01.349Z,22.3
2019-02-05T04:39:51.530Z,22.3
2019-02-05T04:40:41.917Z,22.4
2019-02-05T04:41:31.976Z,22.3
2019-02-05T04:42:24.617Z,22.2
2019-02-05T04:43:11.250Z,22.1
2019-02-05T04:44:01.295Z,22
2019-02-05T04:44:52.065Z,21.9
2019-02-05T04:45:42.342Z,21.9
2019-02-05T04:46:32.504Z,21.8
2019-02-05T04:47:21.570Z,21.8
2019-02-05T04:48:12.498Z,21.7
2019-02-05T04:49:02.172Z,21.7
2019-02-05T04:49:52.238Z,21.6
2019-02-05T04:50:42.041Z,21.6
2019-02-05T04:51:34.825Z,21.6
2019-02-05T04:52:22.221Z,21.6
2019-02-05T04:53:12.807Z,21.6
2019-02-05T04:54:02.959Z,21.6
2019-02-05T04:54:52.390Z,21.5
2019-02-05T04:55:42.381Z,21.4
2019-02-05T04:56:32.571Z,21.4
2019-02-05T04:57:24.049Z,21.4
2019-02-05T04:58:13.132Z,21.4
2019-02-05T04:59:02.594Z,21.4
2019-02-05T04:59:53.214Z,21.4
2019-02-05T05:00:45.231Z,21.4
2019-02-05T05:01:33.370Z,21.4
2019-02-05T05:02:23.527Z,21.4
2019-02-05T05:03:13.554Z,21.3
2019-02-05T05:04:03.807Z,21.3
2019-02-05T05:05:43.674Z,21.1
2019-02-05T05:07:23.210Z,21.1
2019-02-05T05:08:13.792Z,21
2019-02-05T05:09:04.375Z,20.9
2019-02-05T05:09:55.135Z,20.9
2019-02-05T05:10:43.415Z,20.9
2019-02-05T05:11:33.810Z,20.8
2019-02-05T05:12:23.738Z,20.7
2019-02-05T05:13:13.715Z,20.6
2019-02-05T05:14:03.966Z,20.6
2019-02-05T05:14:54.058Z,20.6
2019-02-05T05:15:46.124Z,20.6
2019-02-05T05:16:33.837Z,20.6
2019-02-05T05:17:23.504Z,20.5
2019-02-05T05:18:17.582Z,20.5
2019-02-05T05:19:05.095Z,20.4
2019-02-05T05:19:54.377Z,20.4
2019-02-05T05:20:44.655Z,20.4
2019-02-05T05:21:35.632Z,20.4
2019-02-05T05:22:24.935Z,20.4
2019-02-05T05:23:14.885Z,20.4
2019-02-05T05:24:05.229Z,20.4
2019-02-05T05:24:56.230Z,20.5
2019-02-05T05:25:45.543Z,20.5
2019-02-05T05:26:34.732Z,20.5
2019-02-05T05:27:25.785Z,20.5
2019-02-05T05:28:17.544Z,20.6
2019-02-05T05:29:05.039Z,20.6
2019-02-05T05:29:55.800Z,20.6
2019-02-05T05:30:47.629Z,20.6
2019-02-05T05:31:36.112Z,20.7
2019-02-05T05:32:25.429Z,20.7
2019-02-05T05:33:15.516Z,20.7
2019-02-05T05:34:05.890Z,20.7
2019-02-05T05:34:55.694Z,20.6
2019-02-05T05:35:51.139Z,20.7
2019-02-05T05:36:37.276Z,20.6
2019-02-05T05:37:25.482Z,20.6
2019-02-05T05:38:16.213Z,20.6
2019-02-05T05:39:05.733Z,20.6
2019-02-05T05:39:59.773Z,20.6
2019-02-05T05:40:46.619Z,20.6
2019-02-05T05:41:36.218Z,20.6
2019-02-05T05:42:26.313Z,20.6
2019-02-05T05:43:16.061Z,20.6
2019-02-05T05:44:09.266Z,20.6
2019-02-05T05:44:56.099Z,20.6
2019-02-05T05:45:49.353Z,20.5
2019-02-05T05:46:36.255Z,20.6
2019-02-05T05:47:26.719Z,20.7
2019-02-05T05:48:16.886Z,20.8
2019-02-05T05:49:07.163Z,20.9
2019-02-05T05:49:56.656Z,20.9
2019-02-05T05:50:47.081Z,20.9
2019-02-05T05:51:38.182Z,21
2019-02-05T05:54:07.202Z,21.2
2019-02-05T05:54:58.754Z,21.3
2019-02-05T05:55:46.825Z,21.3
2019-02-05T05:56:36.340Z,21.3
2019-02-05T05:57:27.138Z,21.3
2019-02-05T05:58:32.163Z,21.4
2019-02-05T05:59:06.943Z,21.4
2019-02-05T05:59:57.138Z,21.4
2019-02-05T06:00:50.815Z,21.3
2019-02-05T06:01:37.201Z,21.3
2019-02-05T06:02:27.049Z,21.3
2019-02-05T06:03:17.747Z,21.3
2019-02-05T06:04:07.959Z,21.4
2019-02-05T06:06:22.990Z,21.4
2019-02-05T06:07:12.632Z,21.4
2019-02-05T06:08:03.945Z,21.3
2019-02-05T06:08:56.054Z,21.3
2019-02-05T06:09:43.625Z,21.3
2019-02-05T06:10:33.338Z,21.3
2019-02-05T06:11:23.207Z,21.3
2019-02-05T06:12:13.005Z,21.3
2019-02-05T06:13:04.296Z,21.3
2019-02-05T06:13:54.204Z,21.3
2019-02-05T06:14:44.842Z,21.3
2019-02-05T06:15:37.239Z,21.3
2019-02-05T06:16:24.134Z,21.3
2019-02-05T06:17:13.611Z,21.3
2019-02-05T06:18:08.446Z,21.4
2019-02-05T06:18:54.636Z,21.4
2019-02-05T06:19:43.562Z,21.4
2019-02-05T06:20:34.240Z,21.4
2019-02-05T06:21:23.644Z,21.4
2019-02-05T06:22:14.629Z,21.4
2019-02-05T06:23:04.914Z,21.4
2019-02-05T06:23:57.892Z,21.4
2019-02-05T06:24:44.568Z,21.4
2019-02-05T06:25:34.278Z,21.4
2019-02-05T06:26:27.326Z,21.4
2019-02-05T06:27:14.641Z,21.4
2019-02-05T06:28:04.994Z,21.3
2019-02-05T06:28:55.333Z,21.3
2019-02-05T06:29:46.295Z,21.3
2019-02-05T06:30:34.623Z,21.3
2019-02-05T06:31:25.243Z,21.3
2019-02-05T06:32:15.345Z,21.3
2019-02-05T06:33:06.373Z,21.4
2019-02-05T06:33:55.360Z,21.4
2019-02-05T06:34:45.193Z,21.4
2019-02-05T06:35:35.546Z,21.4
2019-02-05T06:36:26.098Z,21.4
2019-02-05T06:37:15.898Z,21.4
2019-02-05T06:38:05.920Z,21.4
2019-02-05T06:38:57.751Z,21.4
2019-02-05T06:39:45.906Z,21.4
2019-02-05T06:40:36.463Z,21.4
2019-02-05T06:41:25.623Z,21.4
2019-02-05T06:42:16.849Z,21.4
2019-02-05T06:43:06.002Z,21.4
2019-02-05T06:43:55.432Z,21.4
2019-02-05T06:44:47.348Z,21.3
2019-02-05T06:45:36.144Z,21.3
2019-02-05T06:46:26.174Z,21.3
2019-02-05T06:47:16.012Z,21.3
2019-02-05T06:48:08.864Z,21.3
2019-02-05T06:48:56.342Z,21.3
2019-02-05T06:49:46.512Z,21.3
2019-02-05T06:50:36.779Z,21.3
2019-02-05T06:51:26.401Z,21.3
2019-02-05T06:52:16.970Z,21.3
2019-02-05T06:53:06.784Z,21.3
2019-02-05T06:53:58.659Z,21.3
2019-02-05T06:54:46.574Z,21.3
2019-02-05T06:55:36.644Z,21.3
2019-02-05T06:56:26.978Z,21.3
2019-02-05T06:57:16.673Z,21.3
2019-02-05T06:58:07.141Z,21.3
2019-02-05T06:58:56.244Z,21.3
2019-02-05T06:59:48.351Z,21.3
2019-02-05T07:00:36.088Z,21.3
2019-02-05T07:01:27.319Z,21.3
2019-02-05T07:02:16.472Z,21.3
2019-02-05T07:03:10.018Z,21.3
2019-02-05T07:03:57.681Z,21.3
2019-02-05T07:06:22.601Z,21.3
2019-02-05T07:07:12.883Z,21.3
2019-02-05T07:08:03.011Z,21.3
2019-02-05T07:08:55.113Z,21.3
2019-02-05T07:09:42.878Z,21.3
2019-02-05T07:10:33.520Z,21.3
2019-02-05T07:11:23.626Z,21.3
2019-02-05T07:12:13.285Z,21.3
2019-02-05T07:13:03.436Z,21.3
2019-02-05T07:13:53.419Z,21.3
2019-02-05T07:14:45.763Z,21.3
2019-02-05T07:15:33.543Z,21.3
2019-02-05T07:16:23.863Z,21.3
2019-02-05T07:17:13.327Z,21.3
2019-02-05T07:18:07.937Z,21.3
2019-02-05T07:18:53.467Z,21.2
2019-02-05T07:19:44.365Z,21.2
2019-02-05T07:20:34.728Z,21.2
2019-02-05T07:21:23.925Z,21.2
2019-02-05T07:22:14.655Z,21.2
2019-02-05T07:23:04.752Z,21.2
2019-02-05T07:23:56.124Z,21.2
2019-02-05T07:24:43.634Z,21.2
2019-02-05T07:25:34.502Z,21.2
2019-02-05T07:26:24.264Z,21.2
2019-02-05T07:27:14.622Z,21.3
2019-02-05T07:28:03.629Z,21.3
2019-02-05T07:29:07.839Z,21.3
2019-02-05T07:29:46.823Z,21.3
2019-02-05T07:30:34.618Z,21.3
2019-02-05T07:31:24.646Z,21.3
2019-02-05T07:32:15.042Z,21.2
2019-02-05T07:33:04.822Z,21.3
2019-02-05T07:33:54.839Z,21.3
2019-02-05T07:34:45.148Z,21.3
2019-02-05T07:35:36.555Z,21.2
2019-02-05T07:36:25.127Z,21.3
2019-02-05T07:37:15.977Z,21.3
2019-02-05T07:38:05.507Z,21.2
2019-02-05T07:38:54.204Z,21.2
2019-02-05T07:39:44.482Z,21.2
2019-02-05T07:40:35.469Z,21.2
2019-02-05T07:41:27.012Z,21.2
2019-02-05T07:42:15.261Z,21.2
2019-02-05T07:49:47.006Z,21.2
2019-02-05T07:50:37.534Z,21.2
2019-02-05T07:51:26.503Z,21.3
2019-02-05T07:52:16.209Z,21.4
2019-02-05T07:53:06.263Z,21.4
2019-02-05T07:53:56.023Z,21.4
2019-02-05T07:54:46.560Z,21.4
2019-02-05T07:55:36.077Z,21.4
2019-02-05T07:56:29.318Z,21.3
2019-02-05T07:57:16.710Z,21.3
2019-02-05T07:58:07.358Z,21.3
2019-02-05T07:58:57.398Z,21.3
2019-02-05T07:59:50.820Z,21.3
2019-02-05T08:00:37.580Z,21.3
2019-02-05T08:01:27.380Z,21.3
2019-02-05T08:02:19.815Z,21.3
2019-02-05T08:03:07.215Z,21.2
2019-02-05T08:03:57.237Z,21.2
2019-02-05T08:04:47.647Z,21.2
2019-02-05T08:05:37.607Z,21.2
2019-02-05T08:06:27.445Z,21.2
2019-02-05T08:07:17.445Z,21.2
2019-02-05T08:16:28.324Z,21.2
2019-02-05T08:17:18.734Z,21.2
2019-02-05T08:18:08.202Z,21.2
2019-02-05T08:18:58.499Z,21.2
2019-02-05T08:19:51.106Z,21.2
2019-02-05T08:20:38.991Z,21.2
2019-02-05T08:21:28.549Z,21.2
2019-02-05T08:22:18.815Z,21.2
2019-02-05T08:23:08.339Z,21.2
2019-02-05T08:23:58.859Z,21.2
2019-02-05T08:24:48.878Z,21.2
2019-02-05T08:25:40.997Z,21.2
2019-02-05T08:26:29.324Z,21.2
2019-02-05T08:27:18.353Z,21.2
2019-02-05T08:28:09.350Z,21.2
2019-02-05T08:28:59.861Z,21.2
2019-02-05T08:36:29.463Z,21.1
2019-02-05T08:37:20.425Z,21.1
2019-02-05T08:38:09.350Z,21.1
2019-02-05T08:39:00.165Z,21.1
2019-02-05T08:44:00.861Z,21.2
2019-02-05T08:44:49.765Z,21.2
2019-02-05T08:46:31.265Z,21.2
2019-02-05T08:47:20.187Z,21.2
2019-02-05T08:48:10.535Z,21.2
2019-02-05T08:49:00.872Z,21.2
2019-02-05T08:58:11.085Z,21.1
2019-02-05T08:59:00.987Z,21.1
2019-02-05T08:59:51.768Z,21.1
2019-02-05T09:00:42.126Z,21.1
2019-02-05T09:01:34.249Z,21.1
2019-02-05T09:02:20.729Z,21.1
2019-02-05T09:03:11.886Z,21.1
2019-02-05T09:04:01.403Z,21.1
2019-02-05T09:04:51.699Z,21.1
2019-02-05T09:05:42.031Z,21.1
2019-02-05T09:06:33.408Z,21.1
2019-02-05T09:07:23.086Z,21.1
2019-02-05T09:19:03.342Z,21.1
2019-02-05T09:20:42.015Z,21.1
2019-02-05T09:21:32.845Z,21.1
2019-02-05T09:22:24.525Z,21.1
2019-02-05T09:23:16.412Z,21.1
2019-02-05T09:24:02.780Z,21.1
2019-02-05T09:24:52.867Z,21
2019-02-05T09:25:47.406Z,21.1
2019-02-05T09:26:33.191Z,21.1
2019-02-05T09:27:23.887Z,21.1
2019-02-05T09:28:13.649Z,21.1
2019-02-05T09:29:03.652Z,21.1
2019-02-05T09:29:53.687Z,21
2019-02-05T09:30:44.084Z,21
2019-02-05T09:31:36.092Z,21
2019-02-05T09:32:23.580Z,21.1
2019-02-05T09:33:13.721Z,21
2019-02-05T09:34:03.541Z,21.1
2019-02-05T09:34:54.135Z,21.1
2019-02-05T09:35:43.706Z,21.1
2019-02-05T09:42:23.356Z,21.1
2019-02-05T09:43:16.077Z,21.1
2019-02-05T09:44:04.153Z,21.1
2019-02-05T09:44:54.874Z,21.1
2019-02-05T09:45:44.568Z,21.1
2019-02-05T09:47:24.985Z,21.1
2019-02-05T09:48:14.881Z,21.1
2019-02-05T09:49:18.976Z,21.1
2019-02-05T09:49:54.830Z,21.1
2019-02-05T09:50:52.425Z,21.1
2019-02-05T09:51:35.488Z,21.1
2019-02-05T09:52:28.073Z,21
2019-02-05T09:53:15.438Z,21
2019-02-05T09:54:05.163Z,21
2019-02-05T09:54:54.860Z,21
2019-02-05T09:55:45.548Z,21
2019-02-05T09:56:35.338Z,21
2019-02-05T09:57:25.780Z,21
2019-02-05T09:58:16.477Z,21
2019-02-05T09:59:05.732Z,21
2019-02-05T09:59:54.735Z,21
2019-02-05T10:00:45.782Z,21
2019-02-05T10:01:34.843Z,21
2019-02-05T10:02:26.492Z,21.1
2019-02-05T10:03:16.153Z,21.1
2019-02-05T10:04:55.922Z,21.1
2019-02-05T10:07:38.089Z,21.1
2019-02-05T10:08:15.658Z,21.1
2019-02-05T10:09:19.005Z,21.1
2019-02-05T10:10:11.622Z,21.1
2019-02-05T10:10:46.679Z,21.1
2019-02-05T10:12:06.013Z,21.1
2019-02-05T10:12:34.014Z,21.1
2019-02-05T10:14:08.781Z,21
2019-02-05T10:14:53.019Z,21.1
2019-02-05T10:15:41.374Z,21
2019-02-05T10:16:09.869Z,21
2019-02-05T10:17:12.511Z,21
2019-02-05T10:18:35.899Z,21
2019-02-05T10:18:52.318Z,21
2019-02-05T10:20:10.151Z,21
2019-02-05T10:20:45.459Z,21
2019-02-05T10:23:01.415Z,20.9
2019-02-05T10:23:35.418Z,20.9
2019-02-05T10:25:29.381Z,20.9
2019-02-05T10:26:26.986Z,20.9
2019-02-05T10:26:59.388Z,20.9
2019-02-05T10:27:45.221Z,21
2019-02-05T10:28:35.033Z,21
2019-02-05T10:29:27.780Z,21
2019-02-05T10:30:13.489Z,21
2019-02-05T10:31:04.603Z,21.1
2019-02-05T10:32:10.486Z,21.1
2019-02-05T10:32:45.588Z,21.1
2019-02-05T10:33:35.735Z,21.1
2019-02-05T10:34:38.045Z,21.1
2019-02-05T10:35:17.750Z,21
2019-02-05T10:36:08.838Z,21
2019-02-05T10:36:55.336Z,21
2019-02-05T10:38:00.645Z,21
2019-02-05T10:38:35.638Z,21
2019-02-05T10:39:26.499Z,21
2019-02-05T10:40:16.173Z,21
2019-02-05T10:41:06.420Z,21
2019-02-05T10:41:55.887Z,21
2019-02-05T10:42:48.820Z,21
2019-02-05T10:43:36.128Z,21
2019-02-05T10:44:27.865Z,21
2019-02-05T10:45:48.532Z,21
2019-02-05T10:46:05.631Z,20.9
2019-02-05T10:46:55.569Z,20.9
2019-02-05T10:47:46.220Z,20.9
2019-02-05T10:48:37.189Z,20.9
2019-02-05T10:49:27.174Z,20.9
2019-02-05T10:50:20.147Z,20.9
2019-02-05T10:51:05.813Z,20.9
2019-02-05T10:51:55.169Z,20.9
2019-02-05T10:52:46.526Z,20.9
2019-02-05T10:53:36.587Z,20.9
2019-02-05T10:54:26.305Z,20.9
2019-02-05T10:55:16.431Z,20.9
2019-02-05T10:56:08.214Z,20.9
2019-02-05T10:56:56.634Z,20.9
2019-02-05T10:57:47.342Z,21
2019-02-05T10:58:36.119Z,21
2019-02-05T10:59:27.928Z,21
2019-02-05T11:00:16.829Z,21
2019-02-05T11:01:06.828Z,21
2019-02-05T11:01:57.751Z,21.1
2019-02-05T11:02:48.311Z,21
2019-02-05T11:03:37.218Z,21
2019-02-05T11:04:27.779Z,21
2019-02-05T11:05:19.121Z,21
2019-02-05T11:06:06.806Z,21
2019-02-05T11:06:57.791Z,21
2019-02-05T11:07:47.723Z,21
2019-02-05T11:08:52.735Z,20.9
2019-02-05T11:09:27.319Z,21
2019-02-05T11:10:17.968Z,20.9
2019-02-05T11:11:10.081Z,20.9
2019-02-05T11:11:58.190Z,20.9
2019-02-05T11:12:47.883Z,20.9
2019-02-05T11:13:38.185Z,20.9
2019-02-05T11:14:27.856Z,20.9
2019-02-05T11:15:18.593Z,20.9
2019-02-05T11:16:09.025Z,20.9
2019-02-05T11:16:59.291Z,20.9
2019-02-05T11:17:48.185Z,20.9
2019-02-05T11:18:38.746Z,20.9
2019-02-05T11:19:28.397Z,20.9
2019-02-05T11:20:20.630Z,20.9
2019-02-05T11:21:11.392Z,20.9
2019-02-05T11:21:59.120Z,20.9
2019-02-05T11:22:49.072Z,20.9
2019-02-05T11:23:39.415Z,20.9
2019-02-05T11:24:29.530Z,20.9
2019-02-05T11:25:19.317Z,20.9
2019-02-05T11:26:12.417Z,21
2019-02-05T11:27:00.060Z,21
2019-02-05T11:27:52.559Z,21
2019-02-05T11:28:38.934Z,21
2019-02-05T11:29:29.574Z,21
2019-02-05T11:30:27.099Z,21
2019-02-05T11:31:09.229Z,21
2019-02-05T11:32:01.079Z,21
2019-02-05T11:32:49.204Z,21
2019-02-05T11:33:39.309Z,20.9
2019-02-05T11:34:30.462Z,20.9
2019-02-05T11:35:21.371Z,20.9
2019-02-05T11:36:09.752Z,20.9
2019-02-05T11:37:00.874Z,20.9
2019-02-05T11:37:50.683Z,20.9
2019-02-05T11:38:39.402Z,20.9
2019-02-05T11:39:29.440Z,20.9
2019-02-05T11:40:20.995Z,20.9
2019-02-05T11:41:15.227Z,20.9
2019-02-05T11:42:00.171Z,20.9
2019-02-05T11:43:05.131Z,20.9
2019-02-05T11:43:40.389Z,20.9
2019-02-05T11:44:31.181Z,20.9
2019-02-05T11:45:20.996Z,20.9
2019-02-05T11:46:10.819Z,20.9
2019-02-05T11:47:06.435Z,20.9
2019-02-05T11:47:50.861Z,20.9
2019-02-05T11:48:41.540Z,20.6
2019-02-05T11:49:30.968Z,19.9
2019-02-05T11:50:21.405Z,19.5
2019-02-05T11:51:10.804Z,18.9
2019-02-05T11:52:15.966Z,18.5
2019-02-05T11:52:52.936Z,18
2019-02-05T11:53:41.830Z,17.8
2019-02-05T11:54:31.755Z,17.6
2019-02-05T11:55:20.939Z,17.4
2019-02-05T11:56:12.970Z,17.2
2019-02-05T11:57:00.724Z,16.9
2019-02-05T11:57:51.385Z,16.7
2019-02-05T11:58:41.075Z,16.5
2019-02-05T11:59:32.108Z,16.4
2019-02-05T12:00:34.324Z,16.3
2019-02-05T12:01:11.930Z,16.2
2019-02-05T12:02:04.812Z,16.2
2019-02-05T12:02:54.977Z,16.3
2019-02-05T12:03:41.543Z,16.3
2019-02-05T12:04:32.009Z,16.4
2019-02-05T12:05:22.408Z,16.6
2019-02-05T12:07:23.499Z,17.1
2019-02-05T12:08:13.827Z,17.4
2019-02-05T12:09:05.279Z,17.6
2019-02-05T12:09:53.404Z,17.8
2019-02-05T12:10:42.930Z,18
2019-02-05T12:11:32.667Z,18.2
2019-02-05T12:12:25.777Z,18.3
2019-02-05T12:13:13.457Z,18.5
2019-02-05T12:14:04.337Z,18.6
2019-02-05T12:15:43.973Z,18.9
2019-02-05T12:16:34.272Z,18.9
2019-02-05T12:17:23.749Z,19.1
2019-02-05T12:18:16.916Z,19.2
2019-02-05T12:19:04.759Z,19.3
2019-02-05T12:19:55.869Z,19.4
2019-02-05T12:20:44.241Z,19.4
2019-02-05T12:21:34.846Z,19.5
2019-02-05T12:22:23.806Z,19.6
2019-02-05T12:23:14.948Z,19.6
2019-02-05T12:24:06.655Z,19.6